Terminal Aerodrome Forecast
Issued by NWS

Current Version | Previous Version | Graphics & Text | Print | Product List | Glossary On
Versions: 1 2 3 4 5 6 7 8 9 10 11 12 13 14 15 16
000
FTUS41 KRNK 220523
TAFLWB
TAF
KLWB 220523Z 2206/2306 29005KT P6SM VCSH BKN035
     FM220700 30006KT P6SM BKN035
     FM221100 33007KT P6SM SCT040
     FM221300 35007G17KT P6SM FEW250
     FM230100 VRB03KT P6SM SKC=

USA.gov is the U.S. government's official web portal to all federal, state and local government web resources and services.